sensor_id;sensor_type;location;lat;lon;timestamp;pressure;altitude;pressure_sealevel;temperature;humidity
8049;BME280;20935;42.660;23.342;2023-05-22T00:02:14;94538.06;;;20.18;77.29
8049;BME280;20935;42.660;23.342;2023-05-22T00:04:59;94538.81;;;20.19;77.39
8049;BME280;20935;42.660;23.342;2023-05-22T00:07:46;94532.63;;;20.18;77.31
8049;BME280;20935;42.660;23.342;2023-05-22T00:10:31;94533.38;;;20.19;77.26
8049;BME280;20935;42.660;23.342;2023-05-22T00:13:17;94533.09;;;20.17;77.21
8049;BME280;20935;42.660;23.342;2023-05-22T00:16:02;94526.44;;;20.18;77.28
8049;BME280;20935;42.660;23.342;2023-05-22T00:18:47;94528.41;;;20.17;77.31
8049;BME280;20935;42.660;23.342;2023-05-22T00:21:32;94532.63;;;20.18;77.53
8049;BME280;20935;42.660;23.342;2023-05-22T00:24:21;94522.97;;;20.17;77.42
8049;BME280;20935;42.660;23.342;2023-05-22T00:27:06;94529.91;;;20.18;77.44
8049;BME280;20935;42.660;23.342;2023-05-22T00:29:52;94536.56;;;20.17;77.27
8049;BME280;20935;42.660;23.342;2023-05-22T00:32:37;94533.38;;;20.19;77.34
8049;BME280;20935;42.660;23.342;2023-05-22T00:35:22;94540.03;;;20.18;77.30
8049;BME280;20935;42.660;23.342;2023-05-22T00:38:07;94533.84;;;20.17;77.20
8049;BME280;20935;42.660;23.342;2023-05-22T00:40:53;94533.09;;;20.17;77.08
8049;BME280;20935;42.660;23.342;2023-05-22T00:43:39;94538.06;;;20.18;77.15
8049;BME280;20935;42.660;23.342;2023-05-22T00:46:24;94532.63;;;20.18;77.27
8049;BME280;20935;42.660;23.342;2023-05-22T00:49:09;94539.28;;;20.17;77.67
8049;BME280;20935;42.660;23.342;2023-05-22T00:51:54;94539.28;;;20.17;77.41
8049;BME280;20935;42.660;23.342;2023-05-22T00:54:39;94535.06;;;20.16;77.24
8049;BME280;20935;42.660;23.342;2023-05-22T00:57:26;94531.88;;;20.18;77.23
8049;BME280;20935;42.660;23.342;2023-05-22T01:00:11;94531.88;;;20.18;76.99
8049;BME280;20935;42.660;23.342;2023-05-22T01:02:57;94531.56;;;20.16;77.16
8049;BME280;20935;42.660;23.342;2023-05-22T01:05:43;94525.38;;;20.15;77.26
8049;BME280;20935;42.660;23.342;2023-05-22T01:08:29;94527.34;;;20.15;77.17
8049;BME280;20935;42.660;23.342;2023-05-22T01:11:14;94526.59;;;20.14;77.18
8049;BME280;20935;42.660;23.342;2023-05-22T01:14:04;94526.59;;;20.14;77.30
8049;BME280;20935;42.660;23.342;2023-05-22T01:16:55;94532.78;;;20.15;77.24
8049;BME280;20935;42.660;23.342;2023-05-22T01:29:18;94521.91;;;20.15;77.15
8049;BME280;20935;42.660;23.342;2023-05-22T01:32:09;94521.47;;;20.16;77.23
8049;BME280;20935;42.660;23.342;2023-05-22T01:34:58;94523.41;;;20.16;77.16
8049;BME280;20935;42.660;23.342;2023-05-22T01:37:45;94524.63;;;20.15;77.25
8049;BME280;20935;42.660;23.342;2023-05-22T01:40:30;94522.38;;;20.13;77.28
8049;BME280;20935;42.660;23.342;2023-05-22T01:43:15;94516.94;;;20.13;77.10
8049;BME280;20935;42.660;23.342;2023-05-22T01:46:01;94511.50;;;20.13;77.29
8049;BME280;20935;42.660;23.342;2023-05-22T01:48:47;94511.50;;;20.13;77.14
8049;BME280;20935;42.660;23.342;2023-05-22T01:51:42;94511.50;;;20.13;77.20
8049;BME280;20935;42.660;23.342;2023-05-22T01:54:31;94508.78;;;20.13;77.08
8049;BME280;20935;42.660;23.342;2023-05-22T01:57:21;94516.94;;;20.13;77.09
8049;BME280;20935;42.660;23.342;2023-05-22T02:00:11;94512.72;;;20.12;77.07
8049;BME280;20935;42.660;23.342;2023-05-22T02:02:57;94512.72;;;20.12;76.98
8049;BME280;20935;42.660;23.342;2023-05-22T02:05:45;94517.41;;;20.12;77.02
8049;BME280;20935;42.660;23.342;2023-05-22T02:08:33;94511.19;;;20.11;76.87
8049;BME280;20935;42.660;23.342;2023-05-22T02:11:19;94516.63;;;20.11;77.08
8049;BME280;20935;42.660;23.342;2023-05-22T02:14:06;94512.41;;;20.10;76.72
8049;BME280;20935;42.660;23.342;2023-05-22T02:16:55;94517.13;;;20.10;77.03
8049;BME280;20935;42.660;23.342;2023-05-22T02:19:41;94513.63;;;20.09;76.86
8049;BME280;20935;42.660;23.342;2023-05-22T02:22:27;94517.56;;;20.08;76.71
8049;BME280;20935;42.660;23.342;2023-05-22T02:25:13;94509.41;;;20.08;76.85
8049;BME280;20935;42.660;23.342;2023-05-22T02:27:59;94516.81;;;20.08;76.96
8049;BME280;20935;42.660;23.342;2023-05-22T02:30:44;94514.84;;;20.08;76.83
8049;BME280;20935;42.660;23.342;2023-05-22T02:33:29;94514.84;;;20.08;76.87
8049;BME280;20935;42.660;23.342;2023-05-22T02:36:15;94511.38;;;20.08;76.99
8049;BME280;20935;42.660;23.342;2023-05-22T02:39:01;94514.84;;;20.08;76.75
8049;BME280;20935;42.660;23.342;2023-05-22T02:41:47;94516.34;;;20.09;76.56
8049;BME280;20935;42.660;23.342;2023-05-22T02:44:32;94509.41;;;20.08;76.80
8049;BME280;20935;42.660;23.342;2023-05-22T02:47:17;94512.13;;;20.08;76.97
8049;BME280;20935;42.660;23.342;2023-05-22T02:50:03;94510.91;;;20.09;76.89
8049;BME280;20935;42.660;23.342;2023-05-22T02:52:48;94506.69;;;20.08;76.65
8049;BME280;20935;42.660;23.342;2023-05-22T02:55:35;94503.22;;;20.08;76.87
8049;BME280;20935;42.660;23.342;2023-05-22T02:58:20;94500.50;;;20.08;76.70
8049;BME280;20935;42.660;23.342;2023-05-22T03:01:06;94505.16;;;20.07;76.69
8049;BME280;20935;42.660;23.342;2023-05-22T03:03:51;94505.94;;;20.08;76.67
8049;BME280;20935;42.660;23.342;2023-05-22T03:06:37;94506.69;;;20.08;76.71
8049;BME280;20935;42.660;23.342;2023-05-22T03:09:22;94505.16;;;20.07;76.64
8049;BME280;20935;42.660;23.342;2023-05-22T03:12:09;94505.94;;;20.08;76.63
8049;BME280;20935;42.660;23.342;2023-05-22T03:14:55;94510.59;;;20.07;76.48
8049;BME280;20935;42.660;23.342;2023-05-22T03:17:40;94509.41;;;20.08;76.73
8049;BME280;20935;42.660;23.342;2023-05-22T03:20:25;94507.13;;;20.07;76.60
8049;BME280;20935;42.660;23.342;2023-05-22T03:23:10;94511.81;;;20.06;76.36
8049;BME280;20935;42.660;23.342;2023-05-22T03:25:55;94514.53;;;20.06;76.30
8049;BME280;20935;42.660;23.342;2023-05-22T03:28:42;94509.09;;;20.06;76.52
8049;BME280;20935;42.660;23.342;2023-05-22T03:31:27;94513.34;;;20.07;76.42
8049;BME280;20935;42.660;23.342;2023-05-22T03:34:14;94506.38;;;20.06;76.44
8049;BME280;20935;42.660;23.342;2023-05-22T03:36:59;94515.28;;;20.07;76.16
8049;BME280;20935;42.660;23.342;2023-05-22T03:39:44;94511.38;;;20.08;76.48
8049;BME280;20935;42.660;23.342;2023-05-22T03:42:29;94514.09;;;20.08;76.36
8049;BME280;20935;42.660;23.342;2023-05-22T03:45:16;94503.22;;;20.08;76.29
8049;BME280;20935;42.660;23.342;2023-05-22T03:48:01;94514.09;;;20.08;76.14
8049;BME280;20935;42.660;23.342;2023-05-22T03:50:46;94509.41;;;20.08;76.01
8049;BME280;20935;42.660;23.342;2023-05-22T03:53:32;94512.13;;;20.08;75.98
8049;BME280;20935;42.660;23.342;2023-05-22T03:56:17;94517.56;;;20.08;76.04
8049;BME280;20935;42.660;23.342;2023-05-22T03:59:03;94511.38;;;20.08;76.03
8049;BME280;20935;42.660;23.342;2023-05-22T04:01:49;94514.84;;;20.08;75.97
8049;BME280;20935;42.660;23.342;2023-05-22T04:04:34;94516.34;;;20.09;76.18
8049;BME280;20935;42.660;23.342;2023-05-22T04:07:21;94521.78;;;20.09;76.13
8049;BME280;20935;42.660;23.342;2023-05-22T04:10:07;94523.28;;;20.10;76.01
8049;BME280;20935;42.660;23.342;2023-05-22T04:12:52;94510.16;;;20.09;75.85
8049;BME280;20935;42.660;23.342;2023-05-22T04:15:37;94522.56;;;20.10;75.89
8049;BME280;20935;42.660;23.342;2023-05-22T04:18:25;94526.00;;;20.10;76.10
8049;BME280;20935;42.660;23.342;2023-05-22T04:21:11;94520.56;;;20.10;75.77
8049;BME280;20935;42.660;23.342;2023-05-22T04:23:56;94523.28;;;20.10;75.80
8049;BME280;20935;42.660;23.342;2023-05-22T04:26:41;94524.03;;;20.11;75.55
8049;BME280;20935;42.660;23.342;2023-05-22T04:29:27;94524.78;;;20.11;75.58
8049;BME280;20935;42.660;23.342;2023-05-22T04:32:12;94526.75;;;20.11;75.56
8049;BME280;20935;42.660;23.342;2023-05-22T04:35:02;94527.81;;;20.13;75.43
8049;BME280;20935;42.660;23.342;2023-05-22T04:37:47;94529.78;;;20.13;75.59
8049;BME280;20935;42.660;23.342;2023-05-22T04:40:33;94528.56;;;20.14;75.33
8049;BME280;20935;42.660;23.342;2023-05-22T04:43:20;94535.50;;;20.15;75.23
8049;BME280;20935;42.660;23.342;2023-05-22T04:46:09;94541.69;;;20.15;75.25
8049;BME280;20935;42.660;23.342;2023-05-22T04:48:54;94532.34;;;20.16;74.97
8049;BME280;20935;42.660;23.342;2023-05-22T04:51:42;94529.16;;;20.18;74.84
8049;BME280;20935;42.660;23.342;2023-05-22T04:54:27;94535.06;;;20.16;74.93
8049;BME280;20935;42.660;23.342;2023-05-22T04:57:12;94532.03;;;20.14;75.06
8049;BME280;20935;42.660;23.342;2023-05-22T04:59:57;94530.81;;;20.15;75.20
8049;BME280;20935;42.660;23.342;2023-05-22T05:02:42;94529.44;;;20.20;74.54
8049;BME280;20935;42.660;23.342;2023-05-22T05:05:28;94529.75;;;20.22;74.79
8049;BME280;20935;42.660;23.342;2023-05-22T05:08:14;94532.75;;;20.24;74.49
8049;BME280;20935;42.660;23.342;2023-05-22T05:11:00;94538.94;;;20.25;74.63
8049;BME280;20935;42.660;23.342;2023-05-22T05:13:45;94537.75;;;20.26;74.65
8049;BME280;20935;42.660;23.342;2023-05-22T05:16:32;94546.94;;;20.28;74.31
8049;BME280;20935;42.660;23.342;2023-05-22T05:19:17;94543.03;;;20.29;74.42
8049;BME280;20935;42.660;23.342;2023-05-22T05:22:04;94548.00;;;20.31;74.14
8049;BME280;20935;42.660;23.342;2023-05-22T05:24:51;94544.56;;;20.30;74.08
8049;BME280;20935;42.660;23.342;2023-05-22T05:27:37;94545.28;;;20.31;74.07
8049;BME280;20935;42.660;23.342;2023-05-22T05:30:22;94541.84;;;20.30;74.06
8049;BME280;20935;42.660;23.342;2023-05-22T05:33:07;94534.97;;;20.35;74.27
8049;BME280;20935;42.660;23.342;2023-05-22T05:35:53;94542.69;;;20.36;74.37
8049;BME280;20935;42.660;23.342;2023-05-22T05:38:39;94544.97;;;20.38;74.47
8049;BME280;20935;42.660;23.342;2023-05-22T05:41:26;94548.09;;;20.45;74.23
8049;BME280;20935;42.660;23.342;2023-05-22T05:44:11;94547.00;;;20.76;74.26
8049;BME280;20935;42.660;23.342;2023-05-22T05:46:57;94557.50;;;21.16;73.10
8049;BME280;20935;42.660;23.342;2023-05-22T05:49:42;94554.66;;;21.48;72.09
8049;BME280;20935;42.660;23.342;2023-05-22T05:52:27;94549.75;;;21.67;71.25
8049;BME280;20935;42.660;23.342;2023-05-22T05:55:15;94548.53;;;21.83;70.79
8049;BME280;20935;42.660;23.342;2023-05-22T06:00:46;94548.09;;;21.99;70.12
8049;BME280;20935;42.660;23.342;2023-05-22T06:03:32;94549.59;;;22.00;70.25
8049;BME280;20935;42.660;23.342;2023-05-22T06:06:17;94549.41;;;22.04;70.47
8049;BME280;20935;42.660;23.342;2023-05-22T06:09:02;94549.69;;;22.06;70.28
8049;BME280;20935;42.660;23.342;2023-05-22T06:11:49;94553.53;;;22.14;69.99
8049;BME280;20935;42.660;23.342;2023-05-22T06:14:34;94548.06;;;22.14;70.03
8049;BME280;20935;42.660;23.342;2023-05-22T06:17:21;94556.25;;;22.14;69.84
8049;BME280;20935;42.660;23.342;2023-05-22T06:20:06;94551.31;;;21.97;70.37
8049;BME280;20935;42.660;23.342;2023-05-22T06:22:52;94551.56;;;21.85;70.66
8049;BME280;20935;42.660;23.342;2023-05-22T06:25:37;94549.50;;;21.80;70.63
8049;BME280;20935;42.660;23.342;2023-05-22T06:28:23;94548.63;;;21.74;70.97
8049;BME280;20935;42.660;23.342;2023-05-22T06:31:08;94549.31;;;21.69;70.92
8049;BME280;20935;42.660;23.342;2023-05-22T06:33:54;94549.19;;;21.63;71.13
8049;BME280;20935;42.660;23.342;2023-05-22T06:36:40;94549.84;;;21.58;71.57
8049;BME280;20935;42.660;23.342;2023-05-22T06:39:25;94547.78;;;21.53;71.94
8049;BME280;20935;42.660;23.342;2023-05-22T06:42:10;94539.81;;;21.49;72.17
8049;BME280;20935;42.660;23.342;2023-05-22T06:44:55;94550.88;;;21.46;72.37
8049;BME280;20935;42.660;23.342;2023-05-22T06:47:41;94554.53;;;21.43;72.91
8049;BME280;20935;42.660;23.342;2023-05-22T06:50:27;94551.53;;;21.41;72.72
8049;BME280;20935;42.660;23.342;2023-05-22T06:53:13;94553.22;;;21.38;72.93
8049;BME280;20935;42.660;23.342;2023-05-22T06:55:59;94552.19;;;21.36;73.40
8049;BME280;20935;42.660;23.342;2023-05-22T06:58:44;94548.25;;;21.37;73.53
8049;BME280;20935;42.660;23.342;2023-05-22T07:01:29;94557.63;;;21.36;73.58
8049;BME280;20935;42.660;23.342;2023-05-22T07:04:14;94549.63;;;21.32;73.41
8049;BME280;20935;42.660;23.342;2023-05-22T07:07:01;94548.44;;;21.33;73.50
8049;BME280;20935;42.660;23.342;2023-05-22T07:09:46;94546.72;;;21.36;73.78
8049;BME280;20935;42.660;23.342;2023-05-22T07:12:31;94547.13;;;21.58;73.22
8049;BME280;20935;42.660;23.342;2023-05-22T07:15:16;94549.59;;;21.85;72.21
8049;BME280;20935;42.660;23.342;2023-05-22T07:18:01;94552.25;;;22.09;71.55
8049;BME280;20935;42.660;23.342;2023-05-22T07:20:47;94546.28;;;22.25;70.50
8049;BME280;20935;42.660;23.342;2023-05-22T07:23:33;94554.44;;;22.40;70.10
8049;BME280;20935;42.660;23.342;2023-05-22T07:26:19;94548.13;;;22.48;69.80
8049;BME280;20935;42.660;23.342;2023-05-22T07:29:05;94550.56;;;22.46;69.52
8049;BME280;20935;42.660;23.342;2023-05-22T07:31:50;94552.09;;;22.33;70.08
8049;BME280;20935;42.660;23.342;2023-05-22T07:34:35;94556.91;;;22.23;70.10
8049;BME280;20935;42.660;23.342;2023-05-22T07:37:20;94550.78;;;22.14;70.60
8049;BME280;20935;42.660;23.342;2023-05-22T07:40:08;94554.13;;;22.03;70.88
8049;BME280;20935;42.660;23.342;2023-05-22T07:42:53;94545.56;;;21.95;71.53
8049;BME280;20935;42.660;23.342;2023-05-22T07:45:39;94544.69;;;21.89;71.72
8049;BME280;20935;42.660;23.342;2023-05-22T07:48:24;94546.56;;;21.83;72.10
8049;BME280;20935;42.660;23.342;2023-05-22T07:51:09;94539.03;;;21.78;72.35
8049;BME280;20935;42.660;23.342;2023-05-22T07:53:54;94539.88;;;21.70;72.62
8049;BME280;20935;42.660;23.342;2023-05-22T07:56:41;94544.50;;;21.64;72.79
8049;BME280;20935;42.660;23.342;2023-05-22T07:59:26;94535.00;;;21.59;73.56
8049;BME280;20935;42.660;23.342;2023-05-22T08:02:11;94543.00;;;21.63;73.34
8049;BME280;20935;42.660;23.342;2023-05-22T08:04:56;94541.03;;;21.63;73.43
8049;BME280;20935;42.660;23.342;2023-05-22T08:07:41;94542.22;;;21.62;73.21
8049;BME280;20935;42.660;23.342;2023-05-22T08:10:26;94528.34;;;21.60;73.56
8049;BME280;20935;42.660;23.342;2023-05-22T08:13:16;94539.69;;;21.59;73.68
8049;BME280;20935;42.660;23.342;2023-05-22T08:16:02;94532.28;;;21.59;73.73
8049;BME280;20935;42.660;23.342;2023-05-22T08:18:47;94536.22;;;21.58;73.68
8049;BME280;20935;42.660;23.342;2023-05-22T08:21:32;94529.28;;;21.57;73.66
8049;BME280;20935;42.660;23.342;2023-05-22T08:24:18;94537.47;;;21.57;73.71
8049;BME280;20935;42.660;23.342;2023-05-22T08:27:05;94532.47;;;21.55;73.92
8049;BME280;20935;42.660;23.342;2023-05-22T08:29:51;94533.97;;;21.57;73.71
8049;BME280;20935;42.660;23.342;2023-05-22T08:32:36;94524.28;;;21.55;75.29
8049;BME280;20935;42.660;23.342;2023-05-22T08:35:21;94534.72;;;21.57;74.63
8049;BME280;20935;42.660;23.342;2023-05-22T08:38:06;94534.25;;;21.59;74.68
8049;BME280;20935;42.660;23.342;2023-05-22T08:40:52;94526.81;;;21.59;75.63
8049;BME280;20935;42.660;23.342;2023-05-22T08:43:37;94529.56;;;21.59;75.71
8049;BME280;20935;42.660;23.342;2023-05-22T08:46:25;94527.56;;;21.60;76.45
8049;BME280;20935;42.660;23.342;2023-05-22T08:49:11;94524.59;;;21.58;76.82
8049;BME280;20935;42.660;23.342;2023-05-22T08:51:59;94523.84;;;21.57;77.19
8049;BME280;20935;42.660;23.342;2023-05-22T08:54:47;94524.59;;;21.58;77.43
8049;BME280;20935;42.660;23.342;2023-05-22T08:57:35;94530.03;;;21.58;77.56
8049;BME280;20935;42.660;23.342;2023-05-22T09:00:21;94521.38;;;21.59;78.04
8049;BME280;20935;42.660;23.342;2023-05-22T09:03:08;94529.56;;;21.59;78.46
8049;BME280;20935;42.660;23.342;2023-05-22T09:05:56;94525.63;;;21.60;78.64
8049;BME280;20935;42.660;23.342;2023-05-22T09:08:42;94532.28;;;21.59;80.16
8049;BME280;20935;42.660;23.342;2023-05-22T09:11:27;94526.56;;;21.57;80.32
8049;BME280;20935;42.660;23.342;2023-05-22T09:14:12;94521.56;;;21.55;80.79
8049;BME280;20935;42.660;23.342;2023-05-22T09:16:58;94522.78;;;21.54;80.68
8049;BME280;20935;42.660;23.342;2023-05-22T09:19:45;94517.88;;;21.59;83.71
8049;BME280;20935;42.660;23.342;2023-05-22T09:22:33;94513.75;;;21.63;88.46
8049;BME280;20935;42.660;23.342;2023-05-22T09:25:19;94502.09;;;21.63;90.22
8049;BME280;20935;42.660;23.342;2023-05-22T09:28:05;94503.03;;;21.60;90.52
8049;BME280;20935;42.660;23.342;2023-05-22T09:30:51;94509.72;;;21.59;91.00
8049;BME280;20935;42.660;23.342;2023-05-22T09:33:36;94514.41;;;21.58;90.88
8049;BME280;20935;42.660;23.342;2023-05-22T09:36:23;94509.44;;;21.57;92.16
8049;BME280;20935;42.660;23.342;2023-05-22T09:39:13;94506.72;;;21.57;93.09
8049;BME280;20935;42.660;23.342;2023-05-22T09:41:59;94512.16;;;21.57;93.63
8049;BME280;20935;42.660;23.342;2023-05-22T09:44:46;94511.41;;;21.56;94.00
8049;BME280;20935;42.660;23.342;2023-05-22T09:47:32;94505.97;;;21.56;94.02
8049;BME280;20935;42.660;23.342;2023-05-22T09:50:18;94502.94;;;21.54;94.26
8049;BME280;20935;42.660;23.342;2023-05-22T09:53:04;94515.09;;;21.53;94.42
8049;BME280;20935;42.660;23.342;2023-05-22T09:55:50;94506.16;;;21.52;94.73
8049;BME280;20935;42.660;23.342;2023-05-22T09:58:35;94519.03;;;21.52;95.19
8049;BME280;20935;42.660;23.342;2023-05-22T10:01:22;94519.03;;;21.52;95.49
8049;BME280;20935;42.660;23.342;2023-05-22T10:04:12;94519.47;;;21.50;95.90
8049;BME280;20935;42.660;23.342;2023-05-22T10:06:58;94516.75;;;21.50;95.83
8049;BME280;20935;42.660;23.342;2023-05-22T10:09:46;94522.22;;;21.50;95.83
8049;BME280;20935;42.660;23.342;2023-05-22T10:12:36;94514.53;;;21.49;95.83
8049;BME280;20935;42.660;23.342;2023-05-22T10:15:24;94514.78;;;21.51;95.87
8049;BME280;20935;42.660;23.342;2023-05-22T10:18:10;94513.28;;;21.50;95.75
8049;BME280;20935;42.660;23.342;2023-05-22T10:20:56;94513.28;;;21.50;95.86
8049;BME280;20935;42.660;23.342;2023-05-22T10:23:41;94523.16;;;21.47;95.95
8049;BME280;20935;42.660;23.342;2023-05-22T10:26:28;94518.16;;;21.46;95.94
8049;BME280;20935;42.660;23.342;2023-05-22T10:29:15;94522.13;;;21.45;95.85
8049;BME280;20935;42.660;23.342;2023-05-22T10:32:03;94525.31;;;21.43;96.25
8049;BME280;20935;42.660;23.342;2023-05-22T10:34:50;94535.19;;;21.41;96.20
8049;BME280;20935;42.660;23.342;2023-05-22T10:37:41;94555.03;;;21.41;95.98
8049;BME280;20935;42.660;23.342;2023-05-22T10:40:30;94569.09;;;21.40;95.71
8049;BME280;20935;42.660;23.342;2023-05-22T10:43:19;94564.88;;;21.39;95.97
8049;BME280;20935;42.660;23.342;2023-05-22T10:46:05;94557.19;;;21.37;96.58
8049;BME280;20935;42.660;23.342;2023-05-22T10:48:52;94552.94;;;21.36;96.58
8049;BME280;20935;42.660;23.342;2023-05-22T10:51:37;94541.56;;;21.38;95.75
8049;BME280;20935;42.660;23.342;2023-05-22T10:54:37;94540.34;;;21.39;95.52
8049;BME280;20935;42.660;23.342;2023-05-22T10:57:22;94537.34;;;21.37;95.99
8049;BME280;20935;42.660;23.342;2023-05-22T11:00:10;94534.63;;;21.37;96.26
8049;BME280;20935;42.660;23.342;2023-05-22T11:03:02;94527.94;;;21.38;96.91
8049;BME280;20935;42.660;23.342;2023-05-22T11:05:51;94525.97;;;21.38;96.48
8049;BME280;20935;42.660;23.342;2023-05-22T11:08:37;94522.31;;;21.41;96.22
8049;BME280;20935;42.660;23.342;2023-05-22T11:11:23;94519.09;;;21.43;96.26
8049;BME280;20935;42.660;23.342;2023-05-22T11:14:09;94515.44;;;21.46;96.38
8049;BME280;20935;42.660;23.342;2023-05-22T11:17:00;94511.78;;;21.49;96.06
8049;BME280;20935;42.660;23.342;2023-05-22T11:19:47;94506.34;;;21.49;96.29
8049;BME280;20935;42.660;23.342;2023-05-22T11:22:33;94519.97;;;21.49;96.28
8049;BME280;20935;42.660;23.342;2023-05-22T11:25:19;94553.59;;;21.46;96.47
8049;BME280;20935;42.660;23.342;2023-05-22T11:28:06;94558.00;;;21.43;96.42
8049;BME280;20935;42.660;23.342;2023-05-22T11:30:53;94563.66;;;21.40;96.43
8049;BME280;20935;42.660;23.342;2023-05-22T11:33:40;94565.34;;;21.37;96.37
8049;BME280;20935;42.660;23.342;2023-05-22T11:36:25;94566.25;;;21.34;96.09
8049;BME280;20935;42.660;23.342;2023-05-22T11:39:13;94574.91;;;21.33;96.92
8049;BME280;20935;42.660;23.342;2023-05-22T11:41:58;94573.22;;;21.35;96.46
8049;BME280;20935;42.660;23.342;2023-05-22T11:44:43;94574.75;;;21.36;96.21
8049;BME280;20935;42.660;23.342;2023-05-22T11:47:29;94571.25;;;21.36;96.36
8049;BME280;20935;42.660;23.342;2023-05-22T11:50:15;94571.25;;;21.36;95.99
8049;BME280;20935;42.660;23.342;2023-05-22T11:53:00;94575.50;;;21.37;96.42
8049;BME280;20935;42.660;23.342;2023-05-22T11:55:47;94583.38;;;21.35;96.15
8049;BME280;20935;42.660;23.342;2023-05-22T11:58:32;94583.84;;;21.33;96.05
8049;BME280;20935;42.660;23.342;2023-05-22T12:01:17;94579.16;;;21.34;96.38
8049;BME280;20935;42.660;23.342;2023-05-22T12:04:03;94572.19;;;21.33;96.24
8049;BME280;20935;42.660;23.342;2023-05-22T12:06:49;94578.84;;;21.32;96.17
8049;BME280;20935;42.660;23.342;2023-05-22T12:09:34;94575.09;;;21.29;95.79
8049;BME280;20935;42.660;23.342;2023-05-22T12:12:22;94584.75;;;21.30;96.05
8049;BME280;20935;42.660;23.342;2023-05-22T12:15:07;94583.28;;;21.29;96.05
8049;BME280;20935;42.660;23.342;2023-05-22T12:17:53;94572.06;;;21.27;95.54
8049;BME280;20935;42.660;23.342;2023-05-22T12:20:40;94567.84;;;21.26;95.79
8049;BME280;20935;42.660;23.342;2023-05-22T12:23:27;94563.16;;;21.27;96.19
8049;BME280;20935;42.660;23.342;2023-05-22T12:26:14;94556.22;;;21.26;95.39
8049;BME280;20935;42.660;23.342;2023-05-22T12:28:59;94559.22;;;21.28;95.08
8049;BME280;20935;42.660;23.342;2023-05-22T12:31:45;94557.25;;;21.28;95.07
8049;BME280;20935;42.660;23.342;2023-05-22T12:34:31;94557.25;;;21.28;95.65
8049;BME280;20935;42.660;23.342;2023-05-22T12:37:18;94548.31;;;21.28;95.59
8049;BME280;20935;42.660;23.342;2023-05-22T12:40:05;94545.59;;;21.28;96.13
8049;BME280;20935;42.660;23.342;2023-05-22T12:42:51;94548.63;;;21.30;95.79
8049;BME280;20935;42.660;23.342;2023-05-22T12:45:36;94547.84;;;21.29;96.03
8049;BME280;20935;42.660;23.342;2023-05-22T12:48:24;94547.09;;;21.29;95.81
8049;BME280;20935;42.660;23.342;2023-05-22T12:51:09;94551.34;;;21.30;95.58
8049;BME280;20935;42.660;23.342;2023-05-22T12:53:54;94548.31;;;21.28;95.74
8049;BME280;20935;42.660;23.342;2023-05-22T12:56:40;94548.31;;;21.28;95.25
8049;BME280;20935;42.660;23.342;2023-05-22T12:59:25;94552.06;;;21.30;95.54
8049;BME280;20935;42.660;23.342;2023-05-22T13:02:11;94550.84;;;21.31;94.94
8049;BME280;20935;42.660;23.342;2023-05-22T13:04:56;94546.91;;;21.32;95.08
8049;BME280;20935;42.660;23.342;2023-05-22T13:07:41;94549.91;;;21.34;95.28
8049;BME280;20935;42.660;23.342;2023-05-22T13:10:26;94541.75;;;21.34;94.69
8049;BME280;20935;42.660;23.342;2023-05-22T13:13:13;94532.84;;;21.34;95.21
8049;BME280;20935;42.660;23.342;2023-05-22T13:15:58;94535.06;;;21.35;95.46
8049;BME280;20935;42.660;23.342;2023-05-22T13:18:43;94520.69;;;21.35;95.38
8049;BME280;20935;42.660;23.342;2023-05-22T13:21:28;94518.72;;;21.35;95.75
8049;BME280;20935;42.660;23.342;2023-05-22T13:24:14;94508.59;;;21.36;95.65
8049;BME280;20935;42.660;23.342;2023-05-22T13:26:59;94501.44;;;21.38;96.22
8049;BME280;20935;42.660;23.342;2023-05-22T13:29:46;94494.31;;;21.41;95.89
8049;BME280;20935;42.660;23.342;2023-05-22T13:32:31;94491.41;;;21.44;96.01
8049;BME280;20935;42.660;23.342;2023-05-22T13:35:16;94492.41;;;21.47;96.38
8049;BME280;20935;42.660;23.342;2023-05-22T13:38:02;94492.22;;;21.50;96.20
8049;BME280;20935;42.660;23.342;2023-05-22T13:40:47;94485.28;;;21.49;96.44
8049;BME280;20935;42.660;23.342;2023-05-22T13:43:32;94490.56;;;21.53;96.23
8049;BME280;20935;42.660;23.342;2023-05-22T13:46:19;94484.16;;;21.56;96.58
8049;BME280;20935;42.660;23.342;2023-05-22T13:49:04;94485.66;;;21.57;96.43
8049;BME280;20935;42.660;23.342;2023-05-22T13:51:49;94479.28;;;21.60;96.39
8049;BME280;20935;42.660;23.342;2023-05-22T13:54:34;94480.03;;;21.61;96.44
8049;BME280;20935;42.660;23.342;2023-05-22T13:57:19;94474.56;;;21.61;96.40
8049;BME280;20935;42.660;23.342;2023-05-22T14:00:05;94482.25;;;21.62;96.21
8049;BME280;20935;42.660;23.342;2023-05-22T14:02:52;94473.81;;;21.60;96.29
8049;BME280;20935;42.660;23.342;2023-05-22T14:05:37;94482.00;;;21.60;96.44
8049;BME280;20935;42.660;23.342;2023-05-22T14:08:22;94474.28;;;21.59;96.27
8049;BME280;20935;42.660;23.342;2023-05-22T14:11:08;94473.53;;;21.58;96.57
8049;BME280;20935;42.660;23.342;2023-05-22T14:13:53;94475.78;;;21.60;96.11
8049;BME280;20935;42.660;23.342;2023-05-22T14:16:39;94473.34;;;21.62;96.11
8049;BME280;20935;42.660;23.342;2023-05-22T14:19:25;94469.38;;;21.63;95.65
8049;BME280;20935;42.660;23.342;2023-05-22T14:22:10;94468.94;;;21.64;95.48
8049;BME280;20935;42.660;23.342;2023-05-22T14:24:55;94472.69;;;21.67;95.65
8049;BME280;20935;42.660;23.342;2023-05-22T14:27:40;94477.66;;;21.68;95.33
8049;BME280;20935;42.660;23.342;2023-05-22T14:30:25;94476.72;;;21.71;95.60
8049;BME280;20935;42.660;23.342;2023-05-22T14:33:10;94483.19;;;21.74;95.17
8049;BME280;20935;42.660;23.342;2023-05-22T14:35:57;94478.03;;;21.76;95.47
8049;BME280;20935;42.660;23.342;2023-05-22T14:38:42;94472.28;;;21.74;94.94
8049;BME280;20935;42.660;23.342;2023-05-22T14:41:27;94473.03;;;21.74;95.19
8049;BME280;20935;42.660;23.342;2023-05-22T14:44:12;94476.81;;;21.77;95.21
8049;BME280;20935;42.660;23.342;2023-05-22T14:46:57;94478.78;;;21.76;95.42
8049;BME280;20935;42.660;23.342;2023-05-22T14:49:42;94478.22;;;21.72;95.33
8049;BME280;20935;42.660;23.342;2023-05-22T14:52:29;94483.38;;;21.70;95.40